Terminal Aerodrome Forecast
Issued by NWS

Home | Current Version | Previous Version | Text Only | Print | Product List | Glossary On
Versions: 1 2 3 4 5 6 7 8 9 10 11 12 13 14
059
FTUS46 KOTX 221127
TAFMWH
TAF
KMWH 221127Z 2212/2312 VRB06KT P6SM VCSH BKN110 BKN200
     FM221800 21007KT P6SM FEW120 SCT200
     FM230100 24010KT P6SM VCTS SCT080CB BKN120
     FM230500 26008KT P6SM VCSH BKN100 BKN200=

USA.gov is the U.S. government's official web portal to all federal, state and local government web resources and services.